Kinross, MI

7:21 PM EDT on September 21, 2014 (GMT -0400)
Chippewa County International | Change Station
CLOSE
Current Station
Airport
Location: Chippewa,
Elevation: 801 ft
Nearby Weather Stations

Elev 801 ft 46.25 °N, 84.48 °W | Updated 6 minutes ago

Overcast
Overcast
48 °F
Feels Like 48 °F
N
14
Wind Variable Wind from NNW
Gusts 23 mph

Today
High -- | Low -- °F
--% Chance of Precip.
Yesterday
High -- | Low -- °F
Precip. -- in
7:24 AM 7:37 PM
Waning Crescent, 5% visible
Pressure 29.94 in
Visibility 10.0 miles
Clouds Overcast 3300 ft
Dew Point 37 °F
Humidity 66%
Rainfall 0.00 in
Snow Depth Not available.
UV 0 out of 12
Pollen 1.60 out of 12
Ozone Good
PM2.5 Good
Flu Activity Not available.
METAR KCIU 212315Z AUTO 34012G20KT 10SM OVC033 09/03 A2994 RMK AO1

More Conditions Fewer Conditions

Pressure 29.94 in
Visibility 10.0 miles
Clouds Overcast 3300 ft
Dew Point 37 °F
Humidity 66%
Rainfall 0.00 in
Snow Depth Not available.
UV 0 out of 12
Pollen 1.60 out of 12
Ozone Good
PM2.5 Good
Flu Activity Not available.
METAR KCIU 212315Z AUTO 34012G20KT 10SM OVC033 09/03 A2994 RMK AO1

More Conditions Fewer Conditions

Nowcast | as of 7:00 PM EDT on September 21, 2014

At 8 PM...mostly cloudy. Temperature 47. North winds 13 mph. At 10 PM...mostly cloudy. Temperature 45. North winds 9 mph. At 12 am...mostly cloudy. Temperature 44. North winds 8 mph. At 2 am...partly cloudy. Temperature 42. North winds 7 mph.

×

10-Day Weather Forecast

Almanac

Astronomy

Sep. 21, 2014 Rise Set
Actual Time 7:24 AM EDT 7:37 PM EDT
Civil Twilight 6:53 AM EDT 8:07 PM EDT
Nautical Twilight 6:18 AM EDT 8:43 PM EDT
Astronomical Twilight 5:42 AM EDT 9:19 PM EDT
Moon 4:50 AM EDT 6:18 PM EDT
Length of Visible Light 13h 13m
Length of Day
12h 13m
Tomorrow will be 3m 14s shorter.
Waning Crescent, 5% of the Moon is Illuminated
Today
Waning Crescent
Sep 24
New
Oct 1
First Quarter
Oct 8
Full
Oct 15
Last Quarter

Today's Extremes

State Highs State Lows

Community

WunderPhotos

Upload Photos

1,755,292 photos uploaded!

WunderBlogs® & News

Nearby

Air Quality

  Air Quality AQ Index Pollutant
Yesterday Good
OZONE
Yesterday Good
PM2.5
Current Good
OZONE
Current Good
PM2.5
Sunday Good
OZONE
Sunday Good
PM2.5
Monday Good
OZONE
Monday Good
PM2.5

Snow Depth

Station Depth Elevation
No new snow has been reported.

Earthquake Activity

City Distance Mag. Time & Date
No recent earthquake activity has been reported nearby.
Minimum magnitude displayed is 2.5.

Coastal Water Temperatures

Place Temperature
De Tour Village, MI 55.9 °F
Rock Cut, MI 57.0 °F
Little Rapids, MI 57.0 °F
S W Pier, MI 57.9 °F
West Neebish, MI 57.0 °F

Nearby Weather Stations